Time;durP1;ratioP1;P1;durP2;ratioP2;P2;SDS_P1;SDS_P2;PMS_P1;PMS_P2;Temp;Humidity;BMP_temperature;BMP_pressure;BME280_temperature;BME280_humidity;BME280_pressure;Samples;Min_cycle;Max_cycle;Signal;HPM_P1;HPM_P2
2021/03/06 00:00:16;;;;;;;4.45;4.05;;;;;;;;;;5030964;28;20932;-88
2021/03/06 00:02:42;;;;;;;6.50;4.47;;;;;;;;;;5032760;28;20824;-87
2021/03/06 00:05:09;;;;;;;7.22;4.88;;;;;;;;;;5011593;28;20422;-88
2021/03/06 00:07:41;;;;;;;5.00;4.18;;;;;;;;;;5011663;28;20420;-87
2021/03/06 00:10:11;;;;;;;5.07;4.55;;;;;;;;;;5011906;28;20436;-87
2021/03/06 00:12:39;;;;;;;5.20;4.60;;;;;;;;;;5012732;28;20405;-88
2021/03/06 00:15:06;;;;;;;6.53;4.32;;;;;;;;;;5001694;28;20898;-87
2021/03/06 00:17:32;;;;;;;5.68;4.50;;;;;;;;;;5014272;28;20416;-87
2021/03/06 00:20:08;;;;;;;6.28;4.38;;;;;;;;;;4993591;28;20764;-88
2021/03/06 00:22:34;;;;;;;7.00;4.20;;;;;;;;;;4993347;28;20504;-88
2021/03/06 00:25:00;;;;;;;4.95;4.20;;;;;;;;;;5012751;28;20421;-89
2021/03/06 00:27:26;;;;;;;4.80;4.30;;;;;;;;;;4996166;28;20417;-88
2021/03/06 00:29:52;;;;;;;5.85;4.13;;;;;;;;;;4996072;28;20428;-87
2021/03/06 00:32:23;;;;;;;5.85;4.40;;;;;;;;;;5012855;28;20901;-88
2021/03/06 00:34:49;;;;;;;6.10;3.50;;;;;;;;;;5032907;28;20402;-89
2021/03/06 00:37:15;;;;;;;4.35;3.95;;;;;;;;;;5026303;28;20452;-89
2021/03/06 00:39:41;;;;;;;4.32;3.92;;;;;;;;;;5029594;28;20449;-89
2021/03/06 00:42:07;;;;;;;5.40;3.77;;;;;;;;;;5027885;28;20933;-88
2021/03/06 00:44:33;;;;;;;4.80;3.53;;;;;;;;;;5049408;28;20448;-88
2021/03/06 00:47:01;;;;;;;6.75;3.90;;;;;;;;;;5044133;28;20993;-89
2021/03/06 00:49:28;;;;;;;4.32;3.80;;;;;;;;;;5045116;28;20892;-90
2021/03/06 00:51:54;;;;;;;6.03;4.25;;;;;;;;;;5028209;28;20441;-89
2021/03/06 00:54:20;;;;;;;3.88;3.22;;;;;;;;;;5031435;28;20454;-89
2021/03/06 00:56:46;;;;;;;4.13;3.30;;;;;;;;;;5041617;28;20775;-89
2021/03/06 00:59:12;;;;;;;4.82;3.00;;;;;;;;;;5020052;28;20425;-89
2021/03/06 01:01:38;;;;;;;7.85;3.70;;;;;;;;;;4996697;28;20404;-89
2021/03/06 01:04:04;;;;;;;8.95;4.20;;;;;;;;;;5002227;28;20475;-89
2021/03/06 01:06:31;;;;;;;3.53;3.22;;;;;;;;;;5020780;28;20406;-90
2021/03/06 01:08:57;;;;;;;4.13;3.40;;;;;;;;;;5006123;28;20491;-90
2021/03/06 01:11:23;;;;;;;4.03;3.67;;;;;;;;;;5006179;28;20963;-89
2021/03/06 01:13:49;;;;;;;7.25;3.95;;;;;;;;;;5005688;28;20420;-90
2021/03/06 01:16:15;;;;;;;4.45;3.92;;;;;;;;;;5001730;28;20444;-90
2021/03/06 01:18:41;;;;;;;5.93;4.20;;;;;;;;;;4996850;28;20780;-89
2021/03/06 01:21:09;;;;;;;5.43;3.88;;;;;;;;;;5016095;28;20404;-89
2021/03/06 01:23:35;;;;;;;5.20;3.97;;;;;;;;;;4998493;28;20424;-89
2021/03/06 01:26:01;;;;;;;5.77;4.30;;;;;;;;;;5009116;28;20474;-89
2021/03/06 01:28:27;;;;;;;5.88;4.15;;;;;;;;;;5001652;28;20427;-88
2021/03/06 01:30:53;;;;;;;5.50;3.97;;;;;;;;;;4996940;28;20433;-89
2021/03/06 01:33:19;;;;;;;5.17;4.13;;;;;;;;;;5002665;28;20458;-89
2021/03/06 01:35:45;;;;;;;4.78;4.20;;;;;;;;;;5024641;28;20503;-90
2021/03/06 01:38:11;;;;;;;4.60;3.92;;;;;;;;;;5001329;28;20835;-89
2021/03/06 01:40:37;;;;;;;4.55;4.10;;;;;;;;;;5017680;28;20425;-89
2021/03/06 01:43:05;;;;;;;5.10;4.38;;;;;;;;;;5016224;28;20934;-90
2021/03/06 01:45:31;;;;;;;5.75;4.88;;;;;;;;;;4998547;28;20451;-89
2021/03/06 01:47:57;;;;;;;4.82;3.90;;;;;;;;;;5002179;28;20401;-90
2021/03/06 01:50:32;;;;;;;6.43;4.30;;;;;;;;;;5004322;28;20430;-89
2021/03/06 01:52:59;;;;;;;6.22;4.35;;;;;;;;;;5016350;28;20408;-90
2021/03/06 01:55:28;;;;;;;5.25;4.53;;;;;;;;;;5009451;28;20935;-89
2021/03/06 01:57:54;;;;;;;6.28;4.53;;;;;;;;;;5009102;28;20427;-88
2021/03/06 02:00:21;;;;;;;5.77;4.50;;;;;;;;;;5022226;28;20907;-89
2021/03/06 02:02:48;;;;;;;6.65;4.45;;;;;;;;;;5023111;28;20423;-89
2021/03/06 02:05:14;;;;;;;7.65;4.60;;;;;;;;;;5024277;28;21066;-88
2021/03/06 02:07:40;;;;;;;6.20;4.63;;;;;;;;;;5019850;28;20491;-89
2021/03/06 02:10:06;;;;;;;5.75;4.72;;;;;;;;;;5007814;28;20426;-88
2021/03/06 02:12:50;;;;;;;5.43;4.47;;;;;;;;;;5021616;28;20396;-89
2021/03/06 02:15:37;;;;;;;6.35;4.40;;;;;;;;;;5023730;28;20503;-89
2021/03/06 02:18:05;;;;;;;5.95;4.57;;;;;;;;;;5004116;28;20426;-88
2021/03/06 02:20:46;;;;;;;5.15;4.35;;;;;;;;;;5026146;28;20491;-88
2021/03/06 02:23:22;;;;;;;6.00;5.27;;;;;;;;;;5022959;28;20395;-89
2021/03/06 02:26:06;;;;;;;5.60;5.10;;;;;;;;;;5040033;28;20552;-89
2021/03/06 02:28:32;;;;;;;5.75;5.15;;;;;;;;;;5040807;28;20407;-89
2021/03/06 02:30:58;;;;;;;6.10;5.23;;;;;;;;;;5024478;28;20427;-89
2021/03/06 02:33:27;;;;;;;7.45;5.30;;;;;;;;;;5023825;28;20411;-88
2021/03/06 02:35:54;;;;;;;5.73;5.13;;;;;;;;;;5022238;28;20447;-89
2021/03/06 02:38:20;;;;;;;5.50;5.00;;;;;;;;;;5040193;28;20435;-89
2021/03/06 02:40:46;;;;;;;5.53;4.87;;;;;;;;;;5025890;28;20478;-89
2021/03/06 02:43:12;;;;;;;6.97;5.38;;;;;;;;;;5012378;28;20426;-89
2021/03/06 02:45:38;;;;;;;6.03;4.72;;;;;;;;;;5004338;28;20545;-89
2021/03/06 02:48:04;;;;;;;6.07;5.38;;;;;;;;;;5027742;28;20916;-89
2021/03/06 02:50:32;;;;;;;5.97;5.20;;;;;;;;;;5023034;28;20426;-88
2021/03/06 02:52:58;;;;;;;6.63;5.70;;;;;;;;;;5025583;28;20553;-89
2021/03/06 02:55:24;;;;;;;7.50;5.10;;;;;;;;;;5015585;28;20408;-89
2021/03/06 02:57:54;;;;;;;7.60;5.40;;;;;;;;;;5038850;28;20445;-88
2021/03/06 03:00:32;;;;;;;9.27;5.82;;;;;;;;;;5022417;28;20419;-88
2021/03/06 03:02:57;;;;;;;6.18;4.88;;;;;;;;;;5042680;28;20486;-89
2021/03/06 03:05:26;;;;;;;5.70;4.95;;;;;;;;;;5034085;28;20490;-89
2021/03/06 03:08:03;;;;;;;7.63;5.70;;;;;;;;;;5014384;28;20402;-88
2021/03/06 03:10:32;;;;;;;7.05;4.80;;;;;;;;;;5039435;28;20422;-89
2021/03/06 03:13:00;;;;;;;5.32;4.82;;;;;;;;;;5015492;28;20403;-88
2021/03/06 03:15:28;;;;;;;5.70;5.05;;;;;;;;;;5037362;28;21345;-88
2021/03/06 03:17:54;;;;;;;4.63;4.18;;;;;;;;;;5038642;28;22498;-89
2021/03/06 03:20:37;;;;;;;5.63;4.57;;;;;;;;;;5021590;28;20472;-89
2021/03/06 03:23:13;;;;;;;5.55;4.95;;;;;;;;;;5036920;28;20973;-88
2021/03/06 03:25:39;;;;;;;6.93;5.03;;;;;;;;;;5007139;28;20420;-89
2021/03/06 03:28:07;;;;;;;5.38;4.43;;;;;;;;;;5042834;28;20403;-88
2021/03/06 03:30:33;;;;;;;6.47;4.80;;;;;;;;;;5028290;28;20431;-88
2021/03/06 03:33:00;;;;;;;7.63;5.00;;;;;;;;;;5040377;28;20407;-88
2021/03/06 03:35:26;;;;;;;7.43;4.60;;;;;;;;;;5039293;28;20507;-89
2021/03/06 03:37:52;;;;;;;5.50;4.70;;;;;;;;;;5040115;28;20505;-88
2021/03/06 03:40:18;;;;;;;5.28;4.65;;;;;;;;;;5004262;28;20465;-89
2021/03/06 03:42:45;;;;;;;5.53;4.35;;;;;;;;;;5020713;28;20981;-89
2021/03/06 03:45:11;;;;;;;4.68;4.13;;;;;;;;;;5038015;28;20413;-89
2021/03/06 03:47:38;;;;;;;5.05;4.55;;;;;;;;;;5019892;28;20542;-88
2021/03/06 03:50:05;;;;;;;5.60;4.70;;;;;;;;;;5021485;28;20436;-88
2021/03/06 03:52:31;;;;;;;5.65;4.45;;;;;;;;;;5024529;28;20400;-88
2021/03/06 03:54:57;;;;;;;7.45;5.15;;;;;;;;;;5022217;28;20427;-88
2021/03/06 03:57:23;;;;;;;6.03;5.43;;;;;;;;;;5022427;28;20423;-89
2021/03/06 03:59:49;;;;;;;4.88;4.38;;;;;;;;;;5020966;28;20421;-87
2021/03/06 04:02:22;;;;;;;5.38;4.35;;;;;;;;;;5039908;28;20886;-89
2021/03/06 04:04:48;;;;;;;5.07;4.68;;;;;;;;;;5004256;28;20423;-89
2021/03/06 04:07:14;;;;;;;5.20;4.50;;;;;;;;;;5016735;28;20419;-88
2021/03/06 04:09:40;;;;;;;4.60;4.20;;;;;;;;;;5019711;28;20437;-89
2021/03/06 04:12:06;;;;;;;6.85;5.55;;;;;;;;;;5024134;28;20407;-88
2021/03/06 04:14:32;;;;;;;7.45;4.78;;;;;;;;;;5021385;28;21063;-89
2021/03/06 04:16:58;;;;;;;4.80;4.40;;;;;;;;;;5017486;28;20409;-88
2021/03/06 04:19:24;;;;;;;5.43;4.70;;;;;;;;;;5018130;28;20423;-89
2021/03/06 04:21:50;;;;;;;7.18;4.93;;;;;;;;;;5005017;28;20422;-89
2021/03/06 04:24:16;;;;;;;4.63;4.18;;;;;;;;;;5021643;28;20438;-89
2021/03/06 04:26:42;;;;;;;6.97;4.70;;;;;;;;;;5021408;28;20422;-89
2021/03/06 04:29:08;;;;;;;5.88;4.57;;;;;;;;;;5034461;28;20450;-89
2021/03/06 04:31:34;;;;;;;6.10;4.65;;;;;;;;;;5022122;28;20427;-89
2021/03/06 04:33:59;;;;;;;5.13;4.63;;;;;;;;;;5036632;28;20407;-89
2021/03/06 04:36:25;;;;;;;6.05;4.68;;;;;;;;;;5023172;28;20419;-88
2021/03/06 04:38:51;;;;;;;6.82;4.68;;;;;;;;;;5036311;28;20403;-88
2021/03/06 04:41:17;;;;;;;5.78;5.18;;;;;;;;;;5019004;28;20403;-89
2021/03/06 04:43:43;;;;;;;6.63;4.80;;;;;;;;;;5003940;28;20458;-89
2021/03/06 04:46:09;;;;;;;5.10;4.20;;;;;;;;;;5022147;28;20579;-89
2021/03/06 04:48:36;;;;;;;5.13;4.60;;;;;;;;;;5018913;28;20470;-88
2021/03/06 04:51:02;;;;;;;6.73;5.00;;;;;;;;;;5021526;28;20415;-88
2021/03/06 04:53:28;;;;;;;6.72;4.82;;;;;;;;;;5018756;28;20421;-89
2021/03/06 04:55:54;;;;;;;7.65;5.03;;;;;;;;;;5035723;28;20503;-89
2021/03/06 04:58:20;;;;;;;5.13;4.53;;;;;;;;;;5024154;28;20423;-89
2021/03/06 05:00:46;;;;;;;6.50;4.47;;;;;;;;;;5021390;28;20423;-89
2021/03/06 05:03:12;;;;;;;6.95;4.88;;;;;;;;;;5037378;28;20402;-89
2021/03/06 05:05:38;;;;;;;5.25;4.28;;;;;;;;;;5004156;28;20417;-90
2021/03/06 05:08:04;;;;;;;4.87;4.27;;;;;;;;;;5022874;28;20408;-89
2021/03/06 05:10:30;;;;;;;5.13;4.63;;;;;;;;;;5038997;28;20923;-88
2021/03/06 05:12:56;;;;;;;7.88;4.97;;;;;;;;;;5026637;28;20438;-89
2021/03/06 05:15:25;;;;;;;7.43;4.88;;;;;;;;;;5024649;28;20406;-89
2021/03/06 05:17:51;;;;;;;6.00;4.47;;;;;;;;;;5004145;28;20443;-90
2021/03/06 05:20:17;;;;;;;6.13;5.03;;;;;;;;;;5020368;28;20673;-90
2021/03/06 05:22:43;;;;;;;5.47;4.50;;;;;;;;;;5021930;28;20415;-89
2021/03/06 05:25:09;;;;;;;5.20;4.65;;;;;;;;;;5037137;28;20866;-89
2021/03/06 05:27:42;;;;;;;4.93;4.40;;;;;;;;;;5005253;28;20408;-89
2021/03/06 05:30:09;;;;;;;7.70;5.10;;;;;;;;;;5016503;28;20430;-89
2021/03/06 05:32:35;;;;;;;9.05;5.50;;;;;;;;;;5035142;28;20412;-89
2021/03/06 05:35:01;;;;;;;10.10;7.30;;;;;;;;;;5021234;28;20416;-90
2021/03/06 05:37:27;;;;;;;8.45;6.03;;;;;;;;;;5036241;28;20494;-89
2021/03/06 05:39:53;;;;;;;6.47;5.30;;;;;;;;;;5024236;28;20546;-90
2021/03/06 05:42:19;;;;;;;8.13;5.37;;;;;;;;;;5008331;28;20467;-89
2021/03/06 05:44:45;;;;;;;7.50;5.13;;;;;;;;;;5023979;28;20433;-90
2021/03/06 05:47:12;;;;;;;5.47;4.43;;;;;;;;;;5021405;28;20754;-89
2021/03/06 05:49:38;;;;;;;7.88;4.82;;;;;;;;;;5024549;28;20426;-89
2021/03/06 05:52:04;;;;;;;6.67;5.03;;;;;;;;;;5041959;28;20407;-89
2021/03/06 05:54:30;;;;;;;7.28;5.22;;;;;;;;;;5021869;28;20442;-89
2021/03/06 05:56:56;;;;;;;6.05;5.45;;;;;;;;;;5018109;28;20405;-90
2021/03/06 05:59:23;;;;;;;6.07;4.68;;;;;;;;;;5029484;28;20417;-89
2021/03/06 06:01:49;;;;;;;5.47;4.78;;;;;;;;;;5013683;28;20401;-89
2021/03/06 06:04:18;;;;;;;7.93;5.15;;;;;;;;;;5042908;28;20409;-89
2021/03/06 06:06:44;;;;;;;7.80;4.37;;;;;;;;;;5025051;28;22294;-89
2021/03/06 06:09:10;;;;;;;4.72;4.28;;;;;;;;;;5042639;28;20472;-89
2021/03/06 06:11:36;;;;;;;8.48;4.97;;;;;;;;;;5011388;28;20488;-89
2021/03/06 06:14:02;;;;;;;5.70;5.03;;;;;;;;;;5043496;28;20450;-89
2021/03/06 06:16:29;;;;;;;7.95;5.10;;;;;;;;;;5023255;28;20965;-90
2021/03/06 06:18:55;;;;;;;7.10;5.65;;;;;;;;;;5026704;28;20409;-89
2021/03/06 06:21:40;;;;;;;6.80;4.25;;;;;;;;;;5009506;28;20407;-90
2021/03/06 06:24:07;;;;;;;5.13;4.60;;;;;;;;;;5025578;28;20866;-89
2021/03/06 06:26:33;;;;;;;6.20;4.67;;;;;;;;;;5026855;28;20443;-89
2021/03/06 06:28:59;;;;;;;6.65;4.60;;;;;;;;;;5025190;28;20409;-89
2021/03/06 06:31:25;;;;;;;6.28;4.85;;;;;;;;;;5023464;28;20455;-89
2021/03/06 06:33:54;;;;;;;9.32;5.38;;;;;;;;;;5027348;28;20409;-89
2021/03/06 06:36:35;;;;;;;8.88;5.25;;;;;;;;;;5015128;28;20515;-89
2021/03/06 06:39:01;;;;;;;5.85;4.50;;;;;;;;;;5039643;28;20458;-89
2021/03/06 06:41:46;;;;;;;5.45;4.78;;;;;;;;;;5028541;28;20785;-88
2021/03/06 06:44:12;;;;;;;8.97;5.17;;;;;;;;;;5053240;28;20398;-89
2021/03/06 06:46:38;;;;;;;5.97;5.13;;;;;;;;;;5017161;28;20399;-89
2021/03/06 06:49:04;;;;;;;5.78;5.10;;;;;;;;;;5029887;28;20498;-90
2021/03/06 06:51:30;;;;;;;7.80;5.95;;;;;;;;;;5047407;28;20805;-89
2021/03/06 06:54:14;;;;;;;9.35;5.47;;;;;;;;;;5029778;28;20449;-89
2021/03/06 06:56:41;;;;;;;6.38;5.13;;;;;;;;;;5051927;28;20796;-89
2021/03/06 06:59:08;;;;;;;7.13;5.07;;;;;;;;;;5018556;28;20421;-89
2021/03/06 07:01:35;;;;;;;6.03;4.88;;;;;;;;;;5024073;28;20425;-89
2021/03/06 07:04:02;;;;;;;11.23;6.65;;;;;;;;;;5041291;28;20397;-89
2021/03/06 07:06:28;;;;;;;15.38;8.75;;;;;;;;;;5018199;28;20429;-89
2021/03/06 07:09:04;;;;;;;6.40;4.60;;;;;;;;;;5032015;28;20824;-90
2021/03/06 07:11:32;;;;;;;11.52;7.93;;;;;;;;;;5031651;28;20795;-89
2021/03/06 07:13:58;;;;;;;7.53;6.25;;;;;;;;;;5049970;28;20896;-88
2021/03/06 07:16:24;;;;;;;5.85;4.68;;;;;;;;;;5048555;28;20437;-91
2021/03/06 07:19:02;;;;;;;11.57;6.88;;;;;;;;;;5049106;28;20399;-91
2021/03/06 07:21:28;;;;;;;9.38;5.68;;;;;;;;;;5050675;28;20500;-89
2021/03/06 07:23:59;;;;;;;5.93;4.85;;;;;;;;;;5035715;28;21112;-90
2021/03/06 07:26:25;;;;;;;6.82;3.78;;;;;;;;;;5017674;28;20418;-88
2021/03/06 07:28:51;;;;;;;3.33;3.00;;;;;;;;;;5014779;28;20403;-89
2021/03/06 07:31:17;;;;;;;3.47;2.97;;;;;;;;;;5034271;28;20922;-89
2021/03/06 07:33:43;;;;;;;3.50;2.88;;;;;;;;;;5031991;28;20769;-88
2021/03/06 07:36:12;;;;;;;3.70;3.40;;;;;;;;;;5026886;28;20749;-87
2021/03/06 07:38:38;;;;;;;5.80;3.33;;;;;;;;;;5029306;28;20477;-87
2021/03/06 07:41:07;;;;;;;3.87;3.23;;;;;;;;;;5015134;28;20897;-88
2021/03/06 07:43:36;;;;;;;3.53;3.22;;;;;;;;;;5043303;28;20449;-87
2021/03/06 07:46:02;;;;;;;6.07;3.50;;;;;;;;;;5041775;28;20398;-87
2021/03/06 07:48:29;;;;;;;3.55;3.22;;;;;;;;;;5048321;28;20406;-90
2021/03/06 07:50:57;;;;;;;3.50;3.20;;;;;;;;;;5033315;28;20491;-89
2021/03/06 07:53:25;;;;;;;3.33;3.03;;;;;;;;;;5018869;28;20409;-87
2021/03/06 07:55:51;;;;;;;5.37;3.70;;;;;;;;;;5023830;28;20406;-87
2021/03/06 07:58:20;;;;;;;4.00;3.05;;;;;;;;;;5029512;28;20421;-87
2021/03/06 08:00:56;;;;;;;4.55;3.17;;;;;;;;;;5021804;28;20403;-87
2021/03/06 08:03:41;;;;;;;4.43;3.17;;;;;;;;;;5034085;28;20440;-87
2021/03/06 08:06:16;;;;;;;3.20;2.90;;;;;;;;;;5035596;28;20444;-88
2021/03/06 08:08:42;;;;;;;3.95;3.33;;;;;;;;;;5016914;28;20412;-88
2021/03/06 08:11:15;;;;;;;3.80;3.07;;;;;;;;;;5037642;28;20767;-88
2021/03/06 08:13:43;;;;;;;3.43;3.00;;;;;;;;;;5020275;28;20423;-88
2021/03/06 08:16:24;;;;;;;3.33;2.80;;;;;;;;;;5027926;28;20401;-88
2021/03/06 08:18:53;;;;;;;3.45;3.00;;;;;;;;;;5049000;28;20379;-87
2021/03/06 08:21:34;;;;;;;7.05;3.00;;;;;;;;;;5029535;28;20425;-87
2021/03/06 08:24:27;;;;;;;3.78;2.90;;;;;;;;;;5048133;28;20409;-88
2021/03/06 08:27:02;;;;;;;3.10;2.78;;;;;;;;;;5047354;28;20416;-88
2021/03/06 08:29:28;;;;;;;3.53;3.22;;;;;;;;;;5048403;28;20500;-89
2021/03/06 08:31:54;;;;;;;2.63;2.43;;;;;;;;;;5028420;28;20411;-86
2021/03/06 08:34:41;;;;;;;4.68;3.40;;;;;;;;;;5041642;28;20407;-88
2021/03/06 08:37:25;;;;;;;3.42;3.13;;;;;;;;;;5011610;28;20470;-88
2021/03/06 08:39:58;;;;;;;3.75;2.92;;;;;;;;;;5029935;28;20412;-89
2021/03/06 08:42:31;;;;;;;3.75;2.85;;;;;;;;;;5034134;28;20421;-88
2021/03/06 08:44:58;;;;;;;3.75;2.95;;;;;;;;;;5050390;28;20401;-88
2021/03/06 08:47:28;;;;;;;3.00;2.75;;;;;;;;;;5051084;28;20535;-88
2021/03/06 08:49:56;;;;;;;5.75;3.10;;;;;;;;;;5031267;28;20429;-88
2021/03/06 08:52:23;;;;;;;5.30;3.22;;;;;;;;;;5049805;28;20895;-87
2021/03/06 08:54:54;;;;;;;7.05;3.33;;;;;;;;;;5033409;28;20447;-87
2021/03/06 08:57:23;;;;;;;3.95;3.10;;;;;;;;;;5034352;28;20503;-88
2021/03/06 08:59:49;;;;;;;4.45;3.20;;;;;;;;;;5034102;28;20404;-88
2021/03/06 09:02:15;;;;;;;4.20;2.83;;;;;;;;;;5014247;28;20435;-88
2021/03/06 09:04:43;;;;;;;3.00;2.80;;;;;;;;;;5031534;28;20399;-88
2021/03/06 09:07:32;;;;;;;4.53;4.13;;;;;;;;;;5032931;28;20405;-88
2021/03/06 09:10:19;;;;;;;3.78;3.45;;;;;;;;;;5017816;28;20503;-87
2021/03/06 09:12:48;;;;;;;3.33;2.80;;;;;;;;;;5028728;28;20479;-88
2021/03/06 09:15:23;;;;;;;5.45;4.95;;;;;;;;;;5013379;28;20520;-88
2021/03/06 09:18:02;;;;;;;3.78;3.47;;;;;;;;;;5031028;28;20416;-87
2021/03/06 09:20:28;;;;;;;3.72;3.42;;;;;;;;;;5045046;28;20399;-86
2021/03/06 09:22:54;;;;;;;3.10;2.80;;;;;;;;;;5044577;28;20811;-87
2021/03/06 09:25:29;;;;;;;3.85;3.00;;;;;;;;;;5063010;28;20506;-87
2021/03/06 09:27:55;;;;;;;3.23;2.97;;;;;;;;;;5052144;28;20498;-87
2021/03/06 09:30:32;;;;;;;3.53;3.00;;;;;;;;;;5021497;28;20470;-87
2021/03/06 09:32:58;;;;;;;3.70;3.15;;;;;;;;;;5053551;28;20409;-87
2021/03/06 09:35:24;;;;;;;2.95;2.75;;;;;;;;;;5042309;28;20449;-89
2021/03/06 09:38:06;;;;;;;3.15;2.80;;;;;;;;;;5014348;28;20403;-87
2021/03/06 09:40:42;;;;;;;3.17;2.88;;;;;;;;;;5024845;28;20488;-88
2021/03/06 09:43:09;;;;;;;3.90;3.03;;;;;;;;;;5017849;28;20818;-88
2021/03/06 09:45:48;;;;;;;3.40;3.10;;;;;;;;;;5017028;28;20402;-87
2021/03/06 09:48:16;;;;;;;3.80;3.50;;;;;;;;;;5032891;28;20409;-87
2021/03/06 09:50:43;;;;;;;3.85;3.28;;;;;;;;;;5044660;28;20407;-88
2021/03/06 09:53:11;;;;;;;3.88;3.58;;;;;;;;;;5030162;28;20402;-86
2021/03/06 09:55:37;;;;;;;3.63;3.40;;;;;;;;;;5014803;28;21049;-87
2021/03/06 09:58:23;;;;;;;3.97;3.58;;;;;;;;;;5011776;28;20417;-88
2021/03/06 10:00:49;;;;;;;3.60;3.40;;;;;;;;;;4997029;28;20424;-86
2021/03/06 10:03:30;;;;;;;4.30;3.93;;;;;;;;;;5006046;28;20425;-85
2021/03/06 10:05:59;;;;;;;3.80;3.55;;;;;;;;;;5008445;28;20413;-88
2021/03/06 10:08:25;;;;;;;3.97;3.58;;;;;;;;;;5003242;28;20444;-86
2021/03/06 10:10:51;;;;;;;3.60;3.30;;;;;;;;;;5015892;28;21057;-86
2021/03/06 10:13:17;;;;;;;3.30;3.00;;;;;;;;;;4992770;28;20753;-87
2021/03/06 10:15:44;;;;;;;3.72;3.53;;;;;;;;;;4991635;28;20408;-86
2021/03/06 10:18:10;;;;;;;3.45;3.15;;;;;;;;;;5001864;28;20466;-87
2021/03/06 10:20:35;;;;;;;3.78;3.47;;;;;;;;;;5022357;28;20433;-87
2021/03/06 10:23:01;;;;;;;3.97;3.53;;;;;;;;;;5007814;28;20442;-87
2021/03/06 10:25:27;;;;;;;3.42;3.22;;;;;;;;;;5009838;28;20413;-87
2021/03/06 10:27:53;;;;;;;3.50;3.20;;;;;;;;;;5022958;28;20829;-88
2021/03/06 10:30:27;;;;;;;3.40;3.03;;;;;;;;;;5011626;28;20415;-86
2021/03/06 10:32:53;;;;;;;3.90;3.38;;;;;;;;;;5025962;28;20404;-87
2021/03/06 10:35:38;;;;;;;3.97;3.55;;;;;;;;;;5005828;28;20426;-88
2021/03/06 10:38:35;;;;;;;3.47;3.28;;;;;;;;;;5004744;28;20436;-86
2021/03/06 10:41:02;;;;;;;4.53;3.47;;;;;;;;;;4998186;28;20454;-87
2021/03/06 10:43:31;;;;;;;3.95;3.45;;;;;;;;;;5021834;28;20457;-87
2021/03/06 10:49:02;;;;;;;3.10;3.00;;;;;;;;;;5007024;28;21092;-86
2021/03/06 10:54:51;;;;;;;3.22;3.00;;;;;;;;;;5007556;28;21075;-87
2021/03/06 10:57:24;;;;;;;3.60;3.30;;;;;;;;;;5016149;28;20406;-92
2021/03/06 10:59:50;;;;;;;3.17;2.97;;;;;;;;;;5028478;28;20917;-86
2021/03/06 11:02:26;;;;;;;4.35;2.90;;;;;;;;;;5013816;28;20399;-86
2021/03/06 11:04:52;;;;;;;3.20;2.88;;;;;;;;;;5046933;28;20431;-85
2021/03/06 11:07:26;;;;;;;12.65;7.93;;;;;;;;;;5014493;28;20453;-86
2021/03/06 11:09:55;;;;;;;3.83;3.55;;;;;;;;;;5025977;28;20531;-86
2021/03/06 11:12:27;;;;;;;2.88;2.72;;;;;;;;;;5029422;28;20403;-87
2021/03/06 11:15:05;;;;;;;3.43;2.93;;;;;;;;;;5022008;28;20421;-86
2021/03/06 11:17:31;;;;;;;2.87;2.60;;;;;;;;;;5043835;28;20917;-90
2021/03/06 11:20:11;;;;;;;3.00;2.75;;;;;;;;;;5009970;28;20516;-86
2021/03/06 11:22:37;;;;;;;2.88;2.67;;;;;;;;;;5042547;28;20418;-85
2021/03/06 11:25:04;;;;;;;3.65;2.70;;;;;;;;;;5017007;28;20388;-87
2021/03/06 11:27:40;;;;;;;2.60;2.47;;;;;;;;;;5035505;28;20418;-86
2021/03/06 11:30:07;;;;;;;2.92;2.67;;;;;;;;;;5038037;28;20408;-86
2021/03/06 11:32:33;;;;;;;3.65;2.95;;;;;;;;;;5030795;28;20886;-85
2021/03/06 11:34:58;;;;;;;2.80;2.60;;;;;;;;;;5016280;28;20484;-86
2021/03/06 11:37:24;;;;;;;2.55;2.45;;;;;;;;;;5021084;28;20471;-87
2021/03/06 11:39:50;;;;;;;2.90;2.70;;;;;;;;;;5046417;28;20447;-86
2021/03/06 11:42:16;;;;;;;2.70;2.47;;;;;;;;;;5022464;28;20399;-87
2021/03/06 11:44:43;;;;;;;3.00;2.72;;;;;;;;;;5015794;28;20833;-86
2021/03/06 11:47:09;;;;;;;2.95;2.70;;;;;;;;;;5017410;28;20419;-86
2021/03/06 11:49:35;;;;;;;2.47;2.28;;;;;;;;;;5043727;28;20953;-86
2021/03/06 11:52:00;;;;;;;2.80;2.60;;;;;;;;;;5031760;28;20486;-87
2021/03/06 11:54:26;;;;;;;2.80;2.60;;;;;;;;;;5014462;28;20445;-87
2021/03/06 11:56:52;;;;;;;3.70;2.80;;;;;;;;;;5026508;28;20399;-87
2021/03/06 11:59:18;;;;;;;2.70;2.58;;;;;;;;;;5038233;28;20985;-87
2021/03/06 12:01:47;;;;;;;2.53;2.30;;;;;;;;;;5025645;28;20484;-87
2021/03/06 12:04:13;;;;;;;2.50;2.40;;;;;;;;;;5028141;28;20665;-87
2021/03/06 12:06:39;;;;;;;2.35;2.20;;;;;;;;;;5015021;28;20888;-87
2021/03/06 12:09:06;;;;;;;2.40;2.30;;;;;;;;;;5013035;28;20461;-87
2021/03/06 12:11:32;;;;;;;2.58;2.38;;;;;;;;;;5028950;28;20448;-87
2021/03/06 12:13:58;;;;;;;2.88;2.33;;;;;;;;;;5021222;28;20428;-87
2021/03/06 12:16:24;;;;;;;2.50;2.30;;;;;;;;;;5016374;28;20932;-87
2021/03/06 12:18:53;;;;;;;2.28;2.17;;;;;;;;;;5026731;28;20408;-89
2021/03/06 12:21:20;;;;;;;2.25;2.15;;;;;;;;;;5016402;28;20491;-88
2021/03/06 12:23:46;;;;;;;2.10;2.00;;;;;;;;;;5012639;28;20396;-88
2021/03/06 12:26:12;;;;;;;2.53;2.42;;;;;;;;;;5030643;28;20984;-89
2021/03/06 12:28:38;;;;;;;2.33;2.22;;;;;;;;;;5009338;28;20436;-88
2021/03/06 12:31:06;;;;;;;3.50;2.20;;;;;;;;;;5023525;28;20499;-88
2021/03/06 12:33:32;;;;;;;2.20;2.10;;;;;;;;;;5039058;28;20517;-87
2021/03/06 12:35:58;;;;;;;2.30;1.98;;;;;;;;;;5029057;28;20505;-87
2021/03/06 12:38:24;;;;;;;2.22;2.03;;;;;;;;;;5040195;28;20399;-87
2021/03/06 12:40:50;;;;;;;3.63;2.40;;;;;;;;;;5031558;28;20419;-87
2021/03/06 12:43:16;;;;;;;2.50;2.40;;;;;;;;;;5043395;28;20407;-86
2021/03/06 12:45:42;;;;;;;2.22;2.10;;;;;;;;;;5046275;28;20414;-88
2021/03/06 12:48:08;;;;;;;2.17;2.07;;;;;;;;;;5022364;28;20407;-88
2021/03/06 12:50:34;;;;;;;2.55;2.45;;;;;;;;;;5027776;28;20414;-87
2021/03/06 12:52:59;;;;;;;3.88;2.50;;;;;;;;;;5040999;28;20426;-87
2021/03/06 12:55:25;;;;;;;2.35;2.15;;;;;;;;;;5024575;28;20403;-87
2021/03/06 12:57:51;;;;;;;2.92;2.25;;;;;;;;;;5024298;28;20854;-86
2021/03/06 13:00:18;;;;;;;2.58;2.38;;;;;;;;;;5027580;28;20430;-86
2021/03/06 13:02:44;;;;;;;2.40;2.20;;;;;;;;;;5029746;28;20766;-86
2021/03/06 13:05:10;;;;;;;2.20;2.10;;;;;;;;;;5023386;28;20408;-87
2021/03/06 13:07:36;;;;;;;2.33;2.22;;;;;;;;;;5020186;28;20485;-86
2021/03/06 13:10:03;;;;;;;3.47;2.80;;;;;;;;;;5018818;28;20401;-86
2021/03/06 13:12:29;;;;;;;2.50;2.30;;;;;;;;;;5013926;28;20413;-87
2021/03/06 13:14:55;;;;;;;2.67;2.47;;;;;;;;;;5022393;28;20430;-86
2021/03/06 13:17:24;;;;;;;2.92;2.65;;;;;;;;;;5024531;28;20410;-87
2021/03/06 13:19:50;;;;;;;3.70;2.38;;;;;;;;;;5024898;28;21150;-87
2021/03/06 13:22:16;;;;;;;4.00;2.00;;;;;;;;;;5028783;28;20466;-87
2021/03/06 13:24:42;;;;;;;2.67;2.58;;;;;;;;;;5025962;28;20498;-87
2021/03/06 13:27:08;;;;;;;3.08;2.72;;;;;;;;;;5026410;28;20817;-87
2021/03/06 13:29:34;;;;;;;4.75;2.55;;;;;;;;;;5008687;28;20418;-87
2021/03/06 13:32:00;;;;;;;2.50;2.40;;;;;;;;;;5030936;28;20479;-87
2021/03/06 13:34:26;;;;;;;3.20;2.42;;;;;;;;;;5039224;28;20484;-88
2021/03/06 13:36:52;;;;;;;3.55;2.80;;;;;;;;;;5022928;28;20877;-88
2021/03/06 13:39:18;;;;;;;3.67;2.90;;;;;;;;;;5012120;28;20412;-87
2021/03/06 13:41:44;;;;;;;3.33;2.38;;;;;;;;;;5034479;28;20411;-87
2021/03/06 13:44:10;;;;;;;2.40;2.30;;;;;;;;;;5031843;28;20446;-88
2021/03/06 13:46:37;;;;;;;3.13;2.58;;;;;;;;;;5021042;28;20423;-88
2021/03/06 13:49:03;;;;;;;2.75;2.20;;;;;;;;;;5038259;28;20766;-88
2021/03/06 13:51:31;;;;;;;2.30;2.20;;;;;;;;;;5014939;28;20413;-88
2021/03/06 13:53:57;;;;;;;2.75;2.60;;;;;;;;;;5029038;28;20435;-87
2021/03/06 13:56:23;;;;;;;2.85;2.65;;;;;;;;;;5036180;28;20850;-87
2021/03/06 13:58:49;;;;;;;2.65;2.45;;;;;;;;;;5029905;28;20438;-87
2021/03/06 14:01:15;;;;;;;2.88;2.67;;;;;;;;;;5037189;28;20416;-87
2021/03/06 14:03:41;;;;;;;2.80;2.55;;;;;;;;;;5016144;28;20438;-87
2021/03/06 14:06:07;;;;;;;4.28;2.22;;;;;;;;;;5026102;28;20424;-86
2021/03/06 14:08:33;;;;;;;2.80;2.30;;;;;;;;;;5037292;28;20413;-87
2021/03/06 14:10:59;;;;;;;2.33;2.10;;;;;;;;;;5036641;28;20405;-87
2021/03/06 14:13:25;;;;;;;3.97;2.20;;;;;;;;;;5050059;28;20397;-87
2021/03/06 14:15:51;;;;;;;2.50;2.30;;;;;;;;;;5043376;28;21328;-87
2021/03/06 14:18:17;;;;;;;3.75;2.70;;;;;;;;;;5026434;28;21167;-87
2021/03/06 14:20:43;;;;;;;3.13;2.45;;;;;;;;;;5025373;28;20480;-88
2021/03/06 14:23:09;;;;;;;4.18;2.83;;;;;;;;;;5018900;28;20946;-88
2021/03/06 14:25:35;;;;;;;2.10;2.00;;;;;;;;;;5021763;28;20752;-87
2021/03/06 14:28:01;;;;;;;2.70;2.40;;;;;;;;;;5044201;28;20432;-87
2021/03/06 14:30:27;;;;;;;2.30;2.00;;;;;;;;;;5029818;28;20493;-88
2021/03/06 14:32:53;;;;;;;3.23;2.67;;;;;;;;;;5022260;28;20408;-89
2021/03/06 14:35:21;;;;;;;3.45;2.85;;;;;;;;;;5021791;28;20467;-89
2021/03/06 14:37:47;;;;;;;2.40;2.30;;;;;;;;;;5030096;28;20407;-88
2021/03/06 14:40:13;;;;;;;3.25;2.85;;;;;;;;;;5024752;28;20455;-88
2021/03/06 14:42:39;;;;;;;3.10;2.90;;;;;;;;;;5024522;28;20395;-88
2021/03/06 14:45:17;;;;;;;3.17;2.95;;;;;;;;;;5047429;28;20418;-88
2021/03/06 14:47:43;;;;;;;4.65;2.58;;;;;;;;;;5044253;28;20394;-88
2021/03/06 14:50:09;;;;;;;2.88;2.50;;;;;;;;;;5027595;28;20419;-88
2021/03/06 14:52:35;;;;;;;2.47;2.30;;;;;;;;;;5023570;28;20401;-88
2021/03/06 14:55:03;;;;;;;2.60;2.20;;;;;;;;;;5032260;28;20427;-87